<?xml version="1.0" encoding="UTF-8" standalone="no" ?>
<gpx xmlns="http://www.topografix.com/GPX/1/1" xmlns:xsi="http://www.w3.org/2001/XMLSchema-instance" xsi:schemaLocation="http://www.topografix.com/GPX/1/1 http://www.topografix.com/GPX/1/1/gpx.xsd" version="1.1" creator="VisuGPX - https://www.visugpx.com">
  <metadata>
    <name>Pic d'Anie, Sommet 2358m et Soum Couy : Depuis la Pierre Saint Martin</name>
  </metadata>
  <trk>
    <name><![CDATA[Pic d'Anie, Sommet 2358m et Soum Couy : Depuis la Pierre Saint Martin]]></name>
    <trkseg>
      <trkpt lat="42.96312" lon="-0.74337">
        <ele>1887.69</ele>
        <time>2017-04-13T09:55:28Z</time>
      </trkpt>
      <trkpt lat="42.96287" lon="-0.74267">
        <ele>1894.42</ele>
        <time>2017-04-13T09:57:11Z</time>
      </trkpt>
      <trkpt lat="42.96276" lon="-0.74112">
        <ele>1905.95</ele>
        <time>2017-04-13T09:58:53Z</time>
      </trkpt>
      <trkpt lat="42.96195" lon="-0.73812">
        <ele>1942.48</ele>
        <time>2017-04-13T10:03:18Z</time>
      </trkpt>
      <trkpt lat="42.96205" lon="-0.73631">
        <ele>1963.15</ele>
        <time>2017-04-13T10:06:07Z</time>
      </trkpt>
      <trkpt lat="42.9616" lon="-0.73525">
        <ele>1975.65</ele>
        <time>2017-04-13T10:07:52Z</time>
      </trkpt>
      <trkpt lat="42.96191" lon="-0.7342">
        <ele>1981.9</ele>
        <time>2017-04-13T10:09:16Z</time>
      </trkpt>
      <trkpt lat="42.96286" lon="-0.73268">
        <ele>2002.08</ele>
        <time>2017-04-13T10:12:04Z</time>
      </trkpt>
      <trkpt lat="42.9621" lon="-0.73042">
        <ele>2028.04</ele>
        <time>2017-04-13T10:15:30Z</time>
      </trkpt>
      <trkpt lat="42.96248" lon="-0.72842">
        <ele>2042.46</ele>
        <time>2017-04-13T10:18:09Z</time>
      </trkpt>
      <trkpt lat="42.96196" lon="-0.72763">
        <ele>2064.09</ele>
        <time>2017-04-13T10:20:24Z</time>
      </trkpt>
      <trkpt lat="42.9618" lon="-0.72618">
        <ele>2065.05</ele>
        <time>2017-04-13T10:22:51Z</time>
      </trkpt>
      <trkpt lat="42.96143" lon="-0.7258">
        <ele>2071.3</ele>
        <time>2017-04-13T10:23:50Z</time>
      </trkpt>
      <trkpt lat="42.96132" lon="-0.72619">
        <ele>2062.17</ele>
        <time>2017-04-13T10:24:13Z</time>
      </trkpt>
      <trkpt lat="42.96128" lon="-0.72531">
        <ele>2067.93</ele>
        <time>2017-04-13T10:25:25Z</time>
      </trkpt>
      <trkpt lat="42.96077" lon="-0.72412">
        <ele>2083.79</ele>
        <time>2017-04-13T10:27:37Z</time>
      </trkpt>
      <trkpt lat="42.96018" lon="-0.72416">
        <ele>2102.54</ele>
        <time>2017-04-13T10:29:30Z</time>
      </trkpt>
      <trkpt lat="42.95995" lon="-0.72342">
        <ele>2118.4</ele>
        <time>2017-04-13T10:31:11Z</time>
      </trkpt>
      <trkpt lat="42.95952" lon="-0.72328">
        <ele>2131.38</ele>
        <time>2017-04-13T10:32:33Z</time>
      </trkpt>
      <trkpt lat="42.95933" lon="-0.72247">
        <ele>2152.05</ele>
        <time>2017-04-13T10:34:42Z</time>
      </trkpt>
      <trkpt lat="42.95878" lon="-0.72161">
        <ele>2174.64</ele>
        <time>2017-04-13T10:37:05Z</time>
      </trkpt>
      <trkpt lat="42.95874" lon="-0.72073">
        <ele>2197.71</ele>
        <time>2017-04-13T10:39:31Z</time>
      </trkpt>
      <trkpt lat="42.95822" lon="-0.72002">
        <ele>2219.82</ele>
        <time>2017-04-13T10:41:52Z</time>
      </trkpt>
      <trkpt lat="42.95827" lon="-0.71895">
        <ele>2241.45</ele>
        <time>2017-04-13T10:44:19Z</time>
      </trkpt>
      <trkpt lat="42.95776" lon="-0.71871">
        <ele>2268.85</ele>
        <time>2017-04-13T10:54:36Z</time>
      </trkpt>
      <trkpt lat="42.95708" lon="-0.71925">
        <ele>2301.53</ele>
        <time>2017-04-13T10:59:56Z</time>
      </trkpt>
      <trkpt lat="42.9581" lon="-0.71864">
        <ele>2252.99</ele>
        <time>2017-04-13T11:26:39Z</time>
      </trkpt>
      <trkpt lat="42.95831" lon="-0.71968">
        <ele>2218.86</ele>
        <time>2017-04-13T11:27:06Z</time>
      </trkpt>
      <trkpt lat="42.95868" lon="-0.72028">
        <ele>2203</ele>
        <time>2017-04-13T11:27:16Z</time>
      </trkpt>
      <trkpt lat="42.959" lon="-0.72223">
        <ele>2163.1</ele>
        <time>2017-04-13T11:27:51Z</time>
      </trkpt>
      <trkpt lat="42.9595" lon="-0.72318">
        <ele>2135.23</ele>
        <time>2017-04-13T11:28:23Z</time>
      </trkpt>
      <trkpt lat="42.95962" lon="-0.72417">
        <ele>2116.48</ele>
        <time>2017-04-13T11:28:37Z</time>
      </trkpt>
      <trkpt lat="42.95904" lon="-0.72626">
        <ele>2091</ele>
        <time>2017-04-13T11:29:58Z</time>
      </trkpt>
      <trkpt lat="42.95929" lon="-0.72695">
        <ele>2065.05</ele>
        <time>2017-04-13T11:30:17Z</time>
      </trkpt>
      <trkpt lat="42.9591" lon="-0.72741">
        <ele>2053.03</ele>
        <time>2017-04-13T11:30:35Z</time>
      </trkpt>
      <trkpt lat="42.95942" lon="-0.7293">
        <ele>2023.71</ele>
        <time>2017-04-13T11:31:06Z</time>
      </trkpt>
      <trkpt lat="42.95876" lon="-0.73042">
        <ele>2003.52</ele>
        <time>2017-04-13T11:31:33Z</time>
      </trkpt>
      <trkpt lat="42.95852" lon="-0.73218">
        <ele>1984.3</ele>
        <time>2017-04-13T11:32:13Z</time>
      </trkpt>
      <trkpt lat="42.95894" lon="-0.7333">
        <ele>1975.17</ele>
        <time>2017-04-13T11:32:48Z</time>
      </trkpt>
      <trkpt lat="42.95891" lon="-0.73558">
        <ele>1960.75</ele>
        <time>2017-04-13T11:33:35Z</time>
      </trkpt>
      <trkpt lat="42.95951" lon="-0.73727">
        <ele>1941.52</ele>
        <time>2017-04-13T11:34:05Z</time>
      </trkpt>
      <trkpt lat="42.96017" lon="-0.73831">
        <ele>1938.16</ele>
        <time>2017-04-13T11:35:18Z</time>
      </trkpt>
      <trkpt lat="42.96021" lon="-0.73951">
        <ele>1928.54</ele>
        <time>2017-04-13T11:35:42Z</time>
      </trkpt>
      <trkpt lat="42.95989" lon="-0.74041">
        <ele>1920.85</ele>
        <time>2017-04-13T11:35:56Z</time>
      </trkpt>
      <trkpt lat="42.95995" lon="-0.7409">
        <ele>1915.56</ele>
        <time>2017-04-13T11:36:02Z</time>
      </trkpt>
      <trkpt lat="42.96045" lon="-0.74119">
        <ele>1910.28</ele>
        <time>2017-04-13T11:36:17Z</time>
      </trkpt>
      <trkpt lat="42.96135" lon="-0.74253">
        <ele>1889.13</ele>
        <time>2017-04-13T11:36:47Z</time>
      </trkpt>
      <trkpt lat="42.96279" lon="-0.74352">
        <ele>1883.84</ele>
        <time>2017-04-13T11:38:04Z</time>
      </trkpt>
      <trkpt lat="42.96318" lon="-0.74343">
        <ele>1879.51</ele>
        <time>2017-04-13T11:38:26Z</time>
      </trkpt>
      <trkpt lat="42.96362" lon="-0.74214">
        <ele>1865.58</ele>
        <time>2017-04-13T11:38:44Z</time>
      </trkpt>
      <trkpt lat="42.96401" lon="-0.74169">
        <ele>1855.48</ele>
        <time>2017-04-13T11:38:50Z</time>
      </trkpt>
      <trkpt lat="42.96677" lon="-0.7398">
        <ele>1813.18</ele>
        <time>2017-04-13T11:39:29Z</time>
      </trkpt>
      <trkpt lat="42.96935" lon="-0.74037">
        <ele>1770.41</ele>
        <time>2017-04-13T11:39:56Z</time>
      </trkpt>
      <trkpt lat="42.96989" lon="-0.74024">
        <ele>1765.6</ele>
        <time>2017-04-13T11:40:03Z</time>
      </trkpt>
      <trkpt lat="42.97042" lon="-0.73954">
        <ele>1763.2</ele>
        <time>2017-04-13T11:40:22Z</time>
      </trkpt>
      <trkpt lat="42.97088" lon="-0.74019">
        <ele>1755.02</ele>
        <time>2017-04-13T11:40:33Z</time>
      </trkpt>
      <trkpt lat="42.97339" lon="-0.74037">
        <ele>1727.63</ele>
        <time>2017-04-13T11:41:18Z</time>
      </trkpt>
      <trkpt lat="42.97387" lon="-0.74364">
        <ele>1705.04</ele>
        <time>2017-04-13T11:42:08Z</time>
      </trkpt>
      <trkpt lat="42.97436" lon="-0.74412">
        <ele>1699.75</ele>
        <time>2017-04-13T11:42:28Z</time>
      </trkpt>
      <trkpt lat="42.97445" lon="-0.74391">
        <ele>1698.79</ele>
        <time>2017-04-13T11:42:55Z</time>
      </trkpt>
    </trkseg>
  </trk>
</gpx>